Time;durP1;ratioP1;P1;durP2;ratioP2;P2;SDS_P1;SDS_P2;PMS_P1;PMS_P2;Temp;Humidity;BMP_temperature;BMP_pressure;BME280_temperature;BME280_humidity;BME280_pressure;Samples;Min_cycle;Max_cycle;Signal;HPM_P1;HPM_P2
2023/10/28 00:02:24;;;;;;;2.08;0.95;;;;;;;10.19;100.00;99547.81;4978102;28;98002;-28
2023/10/28 00:04:51;;;;;;;1.83;0.88;;;;;;;10.24;100.00;99554.69;4977934;28;97982;-28
2023/10/28 00:07:16;;;;;;;1.75;0.90;;;;;;;10.20;100.00;99551.34;4976812;28;96729;-28
2023/10/28 00:09:41;;;;;;;2.35;0.88;;;;;;;10.25;100.00;99542.88;4978333;28;96807;-28
2023/10/28 00:12:08;;;;;;;3.75;0.95;;;;;;;10.24;100.00;99542.00;4977595;28;99412;-28
2023/10/28 00:14:33;;;;;;;1.35;0.98;;;;;;;10.25;100.00;99557.28;4977840;28;98852;-28
2023/10/28 00:16:59;;;;;;;0.98;0.88;;;;;;;10.28;100.00;99550.75;4978303;28;96673;-28
2023/10/28 00:19:24;;;;;;;0.88;0.63;;;;;;;10.27;100.00;99555.28;4978050;28;96865;-28
2023/10/28 00:21:49;;;;;;;1.73;0.77;;;;;;;10.30;100.00;99559.66;4977078;28;97868;-29
2023/10/28 00:24:15;;;;;;;3.05;1.17;;;;;;;10.25;100.00;99548.28;4977757;28;97803;-28
2023/10/28 00:26:40;;;;;;;1.85;0.65;;;;;;;10.26;100.00;99552.72;4977816;28;96555;-27
2023/10/28 00:29:06;;;;;;;3.30;1.27;;;;;;;10.30;100.00;99556.94;4977944;28;96773;-28
2023/10/28 00:31:31;;;;;;;1.50;0.82;;;;;;;10.29;100.00;99557.91;4977802;28;97370;-28
2023/10/28 00:33:56;;;;;;;0.88;0.65;;;;;;;10.25;100.00;99551.00;4977455;28;97789;-28
2023/10/28 00:36:22;;;;;;;1.77;1.00;;;;;;;10.20;100.00;99552.25;4977923;28;96775;-28
2023/10/28 00:38:47;;;;;;;5.60;1.60;;;;;;;10.26;100.00;99559.00;4978361;28;96745;-28
2023/10/28 00:41:16;;;;;;;5.32;1.27;;;;;;;10.23;100.00;99561.09;4977226;28;98919;-28
2023/10/28 00:43:42;;;;;;;2.28;0.77;;;;;;;10.21;100.00;99551.25;4975752;28;101236;-28
2023/10/28 00:46:07;;;;;;;5.53;1.13;;;;;;;10.25;100.00;99559.09;4975094;28;96759;-29
2023/10/28 00:48:34;;;;;;;4.05;1.25;;;;;;;10.21;100.00;99559.38;4976497;28;96740;-28
2023/10/28 00:51:00;;;;;;;2.63;1.02;;;;;;;10.21;100.00;99562.06;4975512;28;101071;-28
2023/10/28 00:53:26;;;;;;;2.08;0.90;;;;;;;10.24;100.00;99566.38;4975732;28;100885;-28
2023/10/28 00:55:54;;;;;;;1.17;0.77;;;;;;;10.25;100.00;99565.41;4976259;28;96589;-28
2023/10/28 00:58:21;;;;;;;2.72;0.82;;;;;;;10.25;100.00;99564.53;4976064;28;96949;-28
2023/10/28 01:00:48;;;;;;;0.90;0.65;;;;;;;10.25;100.00;99557.28;4975447;28;101344;-28
2023/10/28 01:03:14;;;;;;;2.17;1.25;;;;;;;10.24;100.00;99565.53;4976064;28;101044;-33
2023/10/28 01:05:40;;;;;;;2.00;1.00;;;;;;;10.28;100.00;99550.75;4977267;28;96663;-28
2023/10/28 01:08:06;;;;;;;1.90;0.98;;;;;;;10.26;100.00;99547.31;4976086;28;96756;-28
2023/10/28 01:10:33;;;;;;;3.13;0.73;;;;;;;10.30;100.00;99567.78;4975182;28;100705;-29
2023/10/28 01:12:59;;;;;;;3.72;1.15;;;;;;;10.24;100.00;99555.53;4975631;28;100933;-28
2023/10/28 01:15:26;;;;;;;2.97;1.05;;;;;;;10.29;100.00;99549.78;4976016;28;96495;-28
2023/10/28 01:17:52;;;;;;;4.82;1.17;;;;;;;10.29;100.00;99549.78;4975754;28;96803;-28
2023/10/28 01:20:17;;;;;;;2.28;1.15;;;;;;;10.28;100.00;99554.34;4975412;28;101240;-28
2023/10/28 01:22:43;;;;;;;1.88;1.10;;;;;;;10.27;100.00;99549.88;4976967;28;97832;-28
2023/10/28 01:25:09;;;;;;;1.73;1.05;;;;;;;10.32;100.00;99555.84;4977111;28;96641;-28
2023/10/28 01:27:35;;;;;;;2.08;1.20;;;;;;;10.32;100.00;99553.13;4977574;28;96892;-28
2023/10/28 01:30:03;;;;;;;2.03;1.38;;;;;;;10.33;100.00;99553.97;4976734;28;97315;-28
2023/10/28 01:32:28;;;;;;;2.83;1.27;;;;;;;10.34;100.00;99555.69;4975353;28;101272;-28
2023/10/28 01:34:54;;;;;;;3.47;1.25;;;;;;;10.33;100.00;99554.84;4976895;28;96474;-28
2023/10/28 01:37:21;;;;;;;1.13;0.80;;;;;;;10.29;100.00;99542.53;4975798;28;96756;-28
2023/10/28 01:39:52;;;;;;;2.25;0.90;;;;;;;10.31;100.00;99547.81;4975168;28;101355;-28
2023/10/28 01:42:22;;;;;;;1.95;1.10;;;;;;;10.35;100.00;99550.16;4975228;28;101315;-28
2023/10/28 01:44:50;;;;;;;2.35;1.45;;;;;;;10.31;100.00;99543.28;4975858;28;96760;-28
2023/10/28 01:47:16;;;;;;;1.40;1.00;;;;;;;10.31;100.00;99545.97;4976139;28;96913;-29
2023/10/28 01:49:45;;;;;;;3.20;1.40;;;;;;;10.33;100.00;99543.16;4976373;28;99272;-29
2023/10/28 01:52:13;;;;;;;3.38;1.20;;;;;;;10.36;100.00;99556.44;4975681;28;101337;-27
2023/10/28 01:54:38;;;;;;;2.35;1.33;;;;;;;10.33;100.00;99548.56;4975647;28;96692;-28
2023/10/28 01:57:05;;;;;;;1.92;1.10;;;;;;;10.35;100.00;99552.00;4976794;28;96821;-28
2023/10/28 01:59:32;;;;;;;2.63;1.20;;;;;;;10.30;100.00;99541.56;4974463;28;100901;-28
2023/10/28 02:02:00;;;;;;;0.65;0.55;;;;;;;10.33;100.00;99548.56;4975068;28;100706;-28
2023/10/28 02:04:25;;;;;;;1.38;0.82;;;;;;;10.31;100.00;99540.56;4977071;28;97118;-27
2023/10/28 02:06:51;;;;;;;1.83;1.00;;;;;;;10.35;100.00;99543.91;4976961;28;96829;-28
2023/10/28 02:09:17;;;;;;;1.23;0.77;;;;;;;10.34;100.00;99540.31;4976445;28;97917;-28
2023/10/28 02:11:43;;;;;;;1.30;0.98;;;;;;;10.35;100.00;99541.19;4976156;28;99555;-28
2023/10/28 02:14:09;;;;;;;2.00;1.00;;;;;;;10.35;100.00;99533.91;4978548;28;96653;-28
2023/10/28 02:16:36;;;;;;;2.25;1.15;;;;;;;10.38;100.00;99535.50;4980232;28;96821;-28
2023/10/28 02:19:02;;;;;;;1.95;1.05;;;;;;;10.39;100.00;99538.09;4978132;28;100966;-28
2023/10/28 02:21:28;;;;;;;2.13;1.05;;;;;;;10.40;100.00;99531.69;4978202;28;100909;-27
2023/10/28 02:23:53;;;;;;;4.55;1.20;;;;;;;10.41;100.00;99532.53;4979547;28;96665;-28
2023/10/28 02:26:19;;;;;;;0.77;0.70;;;;;;;10.43;100.00;99533.28;4979944;28;96714;-29
2023/10/28 02:28:44;;;;;;;2.53;1.15;;;;;;;10.40;100.00;99533.53;4979416;28;97515;-28
2023/10/28 02:31:09;;;;;;;4.68;1.25;;;;;;;10.45;100.00;99538.59;4978924;28;98783;-28
2023/10/28 02:33:35;;;;;;;3.55;1.52;;;;;;;10.40;100.00;99531.69;4979510;28;96636;-28
2023/10/28 02:36:08;;;;;;;1.80;0.95;;;;;;;10.38;100.00;99522.84;4978151;28;96814;-28
2023/10/28 02:38:34;;;;;;;2.75;1.17;;;;;;;10.39;100.00;99523.69;4977651;28;100911;-28
2023/10/28 02:41:00;;;;;;;1.90;1.02;;;;;;;10.35;100.00;99517.69;4977973;28;100939;-28
2023/10/28 02:43:25;;;;;;;3.60;1.27;;;;;;;10.41;100.00;99529.84;4979328;28;97019;-29
2023/10/28 02:45:51;;;;;;;2.00;1.38;;;;;;;10.41;100.00;99530.69;4979745;28;96784;-28
2023/10/28 02:48:16;;;;;;;2.13;1.50;;;;;;;10.40;100.00;99533.53;4978223;28;98014;-28
2023/10/28 02:50:41;;;;;;;1.98;1.42;;;;;;;10.39;100.00;99531.81;4978931;28;97782;-29
2023/10/28 02:53:07;;;;;;;2.35;1.38;;;;;;;10.42;100.00;99545.13;4979255;28;96660;-28
2023/10/28 02:55:36;;;;;;;5.00;1.80;;;;;;;10.37;100.00;99531.09;4979102;28;96864;-27
2023/10/28 02:58:02;;;;;;;5.40;1.38;;;;;;;10.40;100.00;99544.38;4976901;28;101200;-28
2023/10/28 03:00:28;;;;;;;2.10;1.30;;;;;;;10.42;100.00;99553.22;4978839;28;97340;-28
2023/10/28 03:02:55;;;;;;;2.63;1.38;;;;;;;10.36;100.00;99545.59;4979286;28;97259;-28
2023/10/28 03:05:23;;;;;;;4.80;1.63;;;;;;;10.35;100.00;99539.34;4978135;28;96896;-28
2023/10/28 03:07:49;;;;;;;1.17;0.88;;;;;;;10.37;100.00;99536.50;4977274;28;101017;-29
2023/10/28 03:10:15;;;;;;;1.55;1.05;;;;;;;10.38;100.00;99536.38;4977122;28;100648;-28
2023/10/28 03:12:40;;;;;;;2.30;1.50;;;;;;;10.38;100.00;99549.06;4978545;28;96715;-28
2023/10/28 03:15:08;;;;;;;2.50;1.40;;;;;;;10.34;100.00;99537.59;4979067;28;97133;-28
2023/10/28 03:17:34;;;;;;;1.38;1.00;;;;;;;10.31;100.00;99521.63;4977122;28;100997;-28
2023/10/28 03:19:59;;;;;;;4.03;1.70;;;;;;;10.38;100.00;99528.25;4978516;28;97966;-28
2023/10/28 03:22:25;;;;;;;2.13;1.30;;;;;;;10.40;100.00;99525.44;4978801;28;96631;-27
2023/10/28 03:24:51;;;;;;;2.22;1.42;;;;;;;10.39;100.00;99532.69;4977478;28;96863;-28
2023/10/28 03:27:17;;;;;;;1.42;1.13;;;;;;;10.43;100.00;99537.84;4978175;28;99386;-29
2023/10/28 03:29:45;;;;;;;2.72;1.50;;;;;;;10.38;100.00;99533.66;4978311;28;99840;-29
2023/10/28 03:32:10;;;;;;;1.65;1.13;;;;;;;10.40;100.00;99541.66;4977355;28;96599;-29
2023/10/28 03:34:36;;;;;;;1.75;1.30;;;;;;;10.42;100.00;99539.69;4978617;28;96849;-28
2023/10/28 03:37:02;;;;;;;3.25;1.38;;;;;;;10.38;100.00;99539.06;4977646;28;98895;-28
2023/10/28 03:39:27;;;;;;;2.83;1.63;;;;;;;10.40;100.00;99538.97;4978367;28;97847;-27
2023/10/28 03:41:53;;;;;;;1.10;1.00;;;;;;;10.33;100.00;99526.91;4978614;28;96580;-28
2023/10/28 03:44:19;;;;;;;4.47;1.20;;;;;;;10.34;100.00;99532.19;4977154;28;97886;-28
2023/10/28 03:46:45;;;;;;;1.77;0.82;;;;;;;10.32;100.00;99533.28;4976179;28;98956;-29
2023/10/28 03:49:11;;;;;;;2.08;1.48;;;;;;;10.28;100.00;99526.41;4978368;28;97325;-28
2023/10/28 03:51:38;;;;;;;1.42;1.08;;;;;;;10.30;100.00;99521.75;4977013;28;96685;-28
2023/10/28 03:54:04;;;;;;;1.48;0.98;;;;;;;10.26;100.00;99517.53;4978579;28;96856;-34
2023/10/28 03:56:30;;;;;;;0.88;0.75;;;;;;;10.27;100.00;99519.25;4976317;28;100887;-28
2023/10/28 03:58:56;;;;;;;2.60;0.88;;;;;;;10.28;100.00;99518.28;4978162;28;97865;-28
2023/10/28 04:01:22;;;;;;;1.17;0.88;;;;;;;10.29;100.00;99517.31;4977674;28;96602;-30
2023/10/28 04:03:47;;;;;;;1.48;0.50;;;;;;;10.27;100.00;99513.84;4978426;28;96774;-28
2023/10/28 04:06:12;;;;;;;1.48;0.70;;;;;;;10.30;100.00;99521.75;4977891;28;97940;-28
2023/10/28 04:08:38;;;;;;;2.15;1.08;;;;;;;10.28;100.00;99519.16;4978130;28;100313;-27
2023/10/28 04:11:04;;;;;;;1.20;0.88;;;;;;;10.28;100.00;99521.00;4978156;28;96740;-28
2023/10/28 04:13:30;;;;;;;1.48;0.90;;;;;;;10.30;100.00;99522.63;4978236;28;96765;-28
2023/10/28 04:15:55;;;;;;;1.63;1.00;;;;;;;10.24;100.00;99512.25;4976176;28;100940;-28
2023/10/28 04:18:21;;;;;;;2.67;0.88;;;;;;;10.25;100.00;99510.41;4978037;28;97231;-28
2023/10/28 04:20:47;;;;;;;2.53;0.85;;;;;;;10.25;100.00;99514.00;4978368;28;96492;-30
2023/10/28 04:23:13;;;;;;;1.63;0.77;;;;;;;10.27;100.00;99503.00;4976795;28;96869;-29
2023/10/28 04:25:39;;;;;;;2.15;1.08;;;;;;;10.30;100.00;99514.50;4975611;28;100027;-28
2023/10/28 04:28:04;;;;;;;1.65;0.95;;;;;;;10.25;100.00;99504.97;4977706;28;97803;-28
2023/10/28 04:30:30;;;;;;;1.17;0.98;;;;;;;10.28;100.00;99502.94;4977744;28;96623;-28
2023/10/28 04:32:55;;;;;;;1.38;0.98;;;;;;;10.27;100.00;99500.31;4976485;28;96819;-28
2023/10/28 04:35:21;;;;;;;1.20;1.10;;;;;;;10.25;100.00;99499.56;4976741;28;99547;-28
2023/10/28 04:37:46;;;;;;;1.95;1.27;;;;;;;10.28;100.00;99502.94;4977320;28;99846;-28
2023/10/28 04:40:12;;;;;;;1.40;1.10;;;;;;;10.31;100.00;99507.22;4978087;28;96670;-28
2023/10/28 04:42:37;;;;;;;1.52;1.02;;;;;;;10.29;100.00;99499.22;4978075;28;96831;-29
2023/10/28 04:45:06;;;;;;;1.25;0.80;;;;;;;10.31;100.00;99502.66;4977486;28;97510;-30
2023/10/28 04:47:31;;;;;;;1.50;0.93;;;;;;;10.27;100.00;99495.75;4975156;28;101022;-28
2023/10/28 04:49:56;;;;;;;2.25;1.10;;;;;;;10.33;100.00;99507.97;4976537;28;96903;-28
2023/10/28 04:52:23;;;;;;;4.32;1.30;;;;;;;10.34;100.00;99498.84;4996389;28;97825;-28
2023/10/28 04:54:49;;;;;;;2.40;0.77;;;;;;;10.35;100.00;99497.88;4995492;28;97451;-29
2023/10/28 04:57:14;;;;;;;2.58;0.90;;;;;;;10.33;100.00;99499.84;4996585;28;99483;-28
2023/10/28 04:59:40;;;;;;;1.20;0.90;;;;;;;10.35;100.00;99489.75;4997655;28;96700;-28
2023/10/28 05:02:05;;;;;;;0.68;0.55;;;;;;;10.37;100.00;99499.47;4997823;28;96901;-28
2023/10/28 05:04:31;;;;;;;1.80;0.65;;;;;;;10.34;100.00;99494.28;4997258;28;97704;-28
2023/10/28 05:06:56;;;;;;;1.05;0.88;;;;;;;10.37;100.00;99498.63;4997015;28;99249;-28
2023/10/28 05:09:22;;;;;;;1.38;1.00;;;;;;;10.32;100.00;99490.88;4994973;28;96581;-29
2023/10/28 05:11:54;;;;;;;1.40;0.90;;;;;;;10.33;100.00;99494.44;4994976;28;97356;-29
2023/10/28 05:14:20;;;;;;;1.63;1.13;;;;;;;10.34;100.00;99485.31;4993741;28;99362;-31
2023/10/28 05:16:46;;;;;;;0.93;0.82;;;;;;;10.35;100.00;99487.91;4992926;28;100675;-29
2023/10/28 05:19:11;;;;;;;0.68;0.60;;;;;;;10.34;100.00;99483.47;4994956;28;97000;-29
2023/10/28 05:21:37;;;;;;;2.33;1.17;;;;;;;10.35;100.00;99487.06;4994870;28;97064;-28
2023/10/28 05:24:03;;;;;;;4.32;1.60;;;;;;;10.31;100.00;99478.31;4995391;28;99417;-28
2023/10/28 05:26:28;;;;;;;1.60;1.02;;;;;;;10.34;100.00;99479.91;4995201;28;100789;-27
2023/10/28 05:28:54;;;;;;;1.60;0.93;;;;;;;10.40;100.00;99490.25;4997184;28;96423;-29
2023/10/28 05:31:20;;;;;;;6.45;1.08;;;;;;;10.35;100.00;99487.06;4997353;28;97024;-28
2023/10/28 05:33:45;;;;;;;1.77;1.10;;;;;;;10.41;100.00;99489.25;4995244;28;101257;-28
2023/10/28 05:36:11;;;;;;;4.63;1.15;;;;;;;10.42;100.00;99488.28;4996989;28;97236;-27
2023/10/28 05:38:36;;;;;;;3.03;1.10;;;;;;;10.38;100.00;99490.34;4996372;28;96569;-28
2023/10/28 05:41:02;;;;;;;3.55;1.10;;;;;;;10.42;100.00;99490.97;4996804;28;96888;-29
2023/10/28 05:43:27;;;;;;;5.43;1.05;;;;;;;10.40;100.00;99488.38;4996617;28;97740;-28
2023/10/28 05:45:53;;;;;;;1.23;0.77;;;;;;;10.40;100.00;99496.50;4996672;28;97207;-27
2023/10/28 05:48:18;;;;;;;2.25;1.10;;;;;;;10.42;100.00;99490.97;4999693;28;96902;-28
2023/10/28 05:50:43;;;;;;;2.45;1.27;;;;;;;10.40;100.00;99501.06;5000587;28;96912;-33
2023/10/28 05:53:09;;;;;;;1.98;1.10;;;;;;;10.37;100.00;99490.50;4999902;28;97763;-28
2023/10/28 05:55:34;;;;;;;2.67;1.10;;;;;;;10.34;100.00;99490.72;5000132;28;97883;-28
2023/10/28 05:57:59;;;;;;;3.45;0.88;;;;;;;10.40;100.00;99495.66;5000235;28;96545;-28
2023/10/28 06:00:25;;;;;;;1.13;0.77;;;;;;;10.39;100.00;99499.31;5000298;28;96846;-28
2023/10/28 06:02:50;;;;;;;4.93;1.17;;;;;;;10.39;100.00;99493.91;4999053;28;99138;-28
2023/10/28 06:05:16;;;;;;;1.02;0.77;;;;;;;10.34;100.00;99479.91;4999705;28;97353;-28
2023/10/28 06:07:47;;;;;;;1.23;0.90;;;;;;;10.33;100.00;99480.91;5000026;28;96829;-28
2023/10/28 06:10:13;;;;;;;1.00;0.87;;;;;;;10.34;100.00;99488.03;4999989;28;96884;-28
2023/10/28 06:12:39;;;;;;;2.58;0.77;;;;;;;10.40;100.00;99490.25;4998085;28;101130;-29
2023/10/28 06:15:04;;;;;;;3.53;1.02;;;;;;;10.32;100.00;99484.59;4999571;28;97848;-29
2023/10/28 06:17:30;;;;;;;2.35;1.13;;;;;;;10.42;100.00;99493.69;5000161;28;96515;-28
2023/10/28 06:19:55;;;;;;;1.75;1.05;;;;;;;10.43;100.00;99498.09;5000335;28;96778;-28
2023/10/28 06:22:21;;;;;;;2.35;1.05;;;;;;;10.43;100.00;99491.81;4999132;28;103278;-29
2023/10/28 06:24:49;;;;;;;3.13;0.88;;;;;;;10.37;100.00;99487.78;4999286;28;97900;-27
2023/10/28 06:27:14;;;;;;;2.30;1.00;;;;;;;10.38;100.00;99486.78;4997906;28;96462;-28
2023/10/28 06:29:39;;;;;;;2.08;0.82;;;;;;;10.45;100.00;99506.09;5000094;28;96811;-28
2023/10/28 06:32:06;;;;;;;1.85;0.60;;;;;;;10.45;100.00;99495.28;4999408;28;97883;-28
2023/10/28 06:34:32;;;;;;;1.52;0.73;;;;;;;10.44;100.00;99496.25;4999115;28;97944;-28
2023/10/28 06:36:57;;;;;;;3.90;0.90;;;;;;;10.37;100.00;99483.22;4999613;28;96513;-27
2023/10/28 06:39:23;;;;;;;2.15;1.13;;;;;;;10.44;100.00;99489.00;4999590;28;96905;-28
2023/10/28 06:41:48;;;;;;;6.72;1.70;;;;;;;10.46;100.00;99488.84;4999230;28;97970;-30
2023/10/28 06:44:15;;;;;;;3.03;1.10;;;;;;;10.49;100.00;99489.47;4999200;28;99718;-28
2023/10/28 06:46:40;;;;;;;2.50;0.80;;;;;;;10.50;100.00;99499.31;4997599;28;96828;-29
2023/10/28 06:49:09;;;;;;;2.05;1.05;;;;;;;10.53;100.00;99503.59;4999749;28;96652;-29
2023/10/28 06:51:34;;;;;;;1.67;0.82;;;;;;;10.54;100.00;99499.94;4996955;28;100859;-29
2023/10/28 06:53:59;;;;;;;1.77;0.95;;;;;;;10.51;100.00;99498.34;4998619;28;99392;-28
2023/10/28 06:56:27;;;;;;;2.63;0.63;;;;;;;10.52;100.00;99500.03;4998935;28;96440;-28
2023/10/28 06:58:53;;;;;;;0.90;0.70;;;;;;;10.52;100.00;99497.34;4997429;28;96835;-28
2023/10/28 07:01:19;;;;;;;1.17;0.95;;;;;;;10.57;100.00;99505.06;4997220;28;101044;-28
2023/10/28 07:03:45;;;;;;;1.42;0.82;;;;;;;10.59;100.00;99508.53;4998525;28;99160;-28
2023/10/28 07:06:14;;;;;;;1.90;1.10;;;;;;;10.57;100.00;99505.94;4997677;28;96586;-29
2023/10/28 07:08:42;;;;;;;0.60;0.55;;;;;;;10.60;100.00;99513.78;4998036;28;96891;-28
2023/10/28 07:11:08;;;;;;;2.15;0.88;;;;;;;10.60;100.00;99499.41;4997015;28;101175;-28
2023/10/28 07:13:33;;;;;;;5.53;0.88;;;;;;;10.63;100.00;99502.72;4998754;28;97813;-29
2023/10/28 07:16:05;;;;;;;2.15;0.65;;;;;;;10.65;100.00;99505.28;4998461;28;96667;-28
2023/10/28 07:18:31;;;;;;;2.78;0.93;;;;;;;10.62;100.00;99500.97;4998887;28;96830;-28
2023/10/28 07:20:58;;;;;;;3.65;0.77;;;;;;;10.66;100.00;99506.16;4996913;28;100836;-28
2023/10/28 07:23:26;;;;;;;2.72;1.10;;;;;;;10.70;100.00;99507.59;4996898;28;100853;-28
2023/10/28 07:25:53;;;;;;;1.10;0.70;;;;;;;10.72;100.00;99511.06;4997354;28;96652;-28
2023/10/28 07:28:20;;;;;;;2.45;0.98;;;;;;;10.68;100.00;99505.03;4997517;28;96830;-27
2023/10/28 07:30:48;;;;;;;0.98;0.70;;;;;;;10.77;100.00;99523.25;4996833;28;101378;-28
2023/10/28 07:33:13;;;;;;;2.38;0.85;;;;;;;10.75;100.00;99513.50;4998536;28;97231;-28
2023/10/28 07:35:43;;;;;;;2.20;0.75;;;;;;;10.77;100.00;99519.66;4998616;28;96664;-28
2023/10/28 07:38:09;;;;;;;3.40;0.98;;;;;;;10.78;100.00;99522.25;4997125;28;96873;-28
2023/10/28 07:40:34;;;;;;;5.90;0.95;;;;;;;10.81;100.00;99521.97;4997856;28;97449;-28
2023/10/28 07:42:59;;;;;;;1.52;0.90;;;;;;;10.81;100.00;99521.13;4998166;28;97290;-28
2023/10/28 07:45:24;;;;;;;1.20;0.70;;;;;;;10.88;100.00;99521.47;4998642;28;96618;-28
2023/10/28 07:47:50;;;;;;;4.47;0.93;;;;;;;10.87;100.00;99515.19;4998299;28;96825;-28
2023/10/28 07:50:15;;;;;;;5.70;1.23;;;;;;;10.94;100.00;99524.53;4997793;28;99404;-28
2023/10/28 07:52:41;;;;;;;2.28;0.68;;;;;;;10.99;100.00;99522.28;4997808;28;97789;-28
2023/10/28 07:55:07;;;;;;;2.50;0.80;;;;;;;11.01;100.00;99520.31;4998276;28;96528;-29
2023/10/28 07:57:33;;;;;;;1.60;0.75;;;;;;;11.03;100.00;99520.16;4997085;28;96882;-28
2023/10/28 07:59:59;;;;;;;3.55;0.85;;;;;;;11.10;100.00;99520.50;4996334;28;98796;-27
2023/10/28 08:02:24;;;;;;;1.40;0.80;;;;;;;11.13;100.00;99526.53;4997938;28;97203;-28
2023/10/28 08:04:54;;;;;;;0.90;0.52;;;;;;;11.13;100.00;99529.25;4997697;28;96622;-28
2023/10/28 08:07:19;;;;;;;3.42;0.80;;;;;;;11.15;100.00;99521.81;4998036;28;96842;-28
2023/10/28 08:09:45;;;;;;;1.35;0.68;;;;;;;11.14;100.00;99522.81;4995253;28;97473;-31
2023/10/28 08:12:11;;;;;;;1.95;0.57;;;;;;;11.18;100.00;99529.72;4995265;28;97879;-28
2023/10/28 08:14:36;;;;;;;1.70;0.82;;;;;;;11.22;100.00;99533.84;4995403;28;96677;-28
2023/10/28 08:17:02;;;;;;;0.60;0.38;;;;;;;11.27;100.00;99528.94;4995398;28;97161;-28
2023/10/28 08:19:29;;;;;;;1.63;0.73;;;;;;;11.32;100.00;99536.66;4994852;28;99656;-28
2023/10/28 08:21:54;;;;;;;1.05;0.57;;;;;;;11.36;100.00;99534.53;4994144;28;101339;-28
2023/10/28 08:24:22;;;;;;;1.08;0.60;;;;;;;11.37;100.00;99533.53;4996296;28;96624;-27
2023/10/28 08:26:48;;;;;;;3.03;0.57;;;;;;;11.40;100.00;99523.28;4997751;28;96828;-27
2023/10/28 08:29:14;;;;;;;0.40;0.35;;;;;;;11.47;100.00;99545.31;4994820;28;100566;-32
2023/10/28 08:31:40;;;;;;;0.85;0.43;;;;;;;11.48;100.00;99528.06;4994688;28;99632;-31
2023/10/28 08:34:06;;;;;;;3.55;0.80;;;;;;;11.50;100.00;99528.78;4995682;28;97126;-31
2023/10/28 08:36:35;;;;;;;2.63;0.93;;;;;;;11.54;100.00;99538.38;4995178;28;97200;-28
2023/10/28 08:39:00;;;;;;;0.25;0.20;;;;;;;11.57;100.00;99539.97;4994933;28;97954;-31
2023/10/28 08:41:25;;;;;;;1.27;0.55;;;;;;;11.56;100.00;99539.09;4995117;28;97227;-28
2023/10/28 08:43:51;;;;;;;0.88;0.65;;;;;;;11.58;100.00;99542.53;4995280;28;96826;-28
2023/10/28 08:46:17;;;;;;;3.13;0.80;;;;;;;11.61;100.00;99541.41;4997052;28;97094;-28
2023/10/28 08:48:43;;;;;;;0.98;0.70;;;;;;;11.68;100.00;99559.72;4997590;28;97371;-27
2023/10/28 08:51:10;;;;;;;2.33;0.50;;;;;;;11.67;100.00;99546.28;4995618;28;101195;-27
2023/10/28 08:53:36;;;;;;;1.13;0.68;;;;;;;11.71;100.00;99557.75;4995709;28;96707;-29
2023/10/28 08:56:03;;;;;;;3.35;0.68;;;;;;;11.69;100.00;99566.88;4996042;28;96807;-27
2023/10/28 08:58:28;;;;;;;0.60;0.40;;;;;;;11.77;100.00;99558.06;4996243;28;99279;-27
2023/10/28 09:00:55;;;;;;;0.32;0.32;;;;;;;11.79;100.00;99572.34;4995469;28;101237;-28
2023/10/28 09:03:22;;;;;;;2.97;0.93;;;;;;;11.81;100.00;99570.38;4997279;28;96719;-27
2023/10/28 09:05:52;;;;;;;3.90;0.82;;;;;;;11.81;100.00;99564.94;4995932;28;97016;-27
2023/10/28 09:08:19;;;;;;;0.85;0.30;;;;;;;11.87;100.00;99566.31;4996884;28;97922;-27
2023/10/28 09:10:45;;;;;;;0.63;0.38;;;;;;;11.93;100.00;99573.03;4995691;28;100499;-27
2023/10/28 09:13:13;;;;;;;2.92;0.60;;;;;;;11.94;100.00;99569.31;4997132;28;96613;-27
2023/10/28 09:15:39;;;;;;;1.00;0.40;;;;;;;11.97;100.00;99566.34;4995906;28;96838;-27
2023/10/28 09:18:04;;;;;;;0.75;0.40;;;;;;;12.03;100.00;99566.66;4994895;28;101094;-28
2023/10/28 09:20:30;;;;;;;5.22;0.60;;;;;;;12.08;100.00;99577.97;4997759;28;97796;-27
2023/10/28 09:22:56;;;;;;;6.72;0.60;;;;;;;12.08;100.00;99583.41;5000920;28;96441;-27
2023/10/28 09:25:24;;;;;;;1.98;0.70;;;;;;;12.03;100.00;99572.06;4999444;28;96807;-28
2023/10/28 09:27:50;;;;;;;0.90;0.35;;;;;;;12.02;100.00;99572.22;4998739;28;100961;-27
2023/10/28 09:30:17;;;;;;;4.85;0.95;;;;;;;12.06;100.00;99584.50;4999947;28;99405;-28
2023/10/28 09:32:43;;;;;;;0.82;0.63;;;;;;;12.06;100.00;99585.41;4980315;28;96598;-28
2023/10/28 09:35:11;;;;;;;0.52;0.38;;;;;;;12.03;100.00;99585.66;4998399;28;96764;-27
2023/10/28 09:37:38;;;;;;;4.22;0.57;;;;;;;12.05;100.00;99580.94;4996119;28;100906;-29
2023/10/28 09:40:06;;;;;;;4.45;0.77;;;;;;;12.09;100.00;99586.97;4997209;28;99248;-28
2023/10/28 09:42:33;;;;;;;1.42;0.73;;;;;;;11.98;100.00;99577.06;4995877;28;96695;-27
2023/10/28 09:45:00;;;;;;;2.42;0.63;;;;;;;12.06;100.00;99579.09;4996347;28;96808;-27
2023/10/28 09:47:48;;;;;;;0.30;0.28;;;;;;;12.11;100.00;99595.84;4995430;28;100865;-27
2023/10/28 09:50:14;;;;;;;0.55;0.55;;;;;;;12.13;100.00;99596.56;4996018;28;98878;-28
2023/10/28 09:52:48;;;;;;;1.63;0.73;;;;;;;12.12;100.00;99597.56;4995880;28;96656;-29
2023/10/28 09:55:15;;;;;;;1.10;0.60;;;;;;;12.08;100.00;99591.56;4997723;28;96518;-28
2023/10/28 09:57:44;;;;;;;1.90;0.80;;;;;;;12.14;100.00;99598.28;4995562;28;101362;-29
2023/10/28 10:00:17;;;;;;;6.63;0.80;;;;;;;12.11;100.00;99601.28;4997603;28;98365;-27
2023/10/28 10:03:08;;;;;;;1.65;0.63;;;;;;;12.15;100.00;99610.84;4997394;28;96658;-28
2023/10/28 10:05:40;;;;;;;1.23;0.65;;;;;;;12.13;100.00;99599.25;4997465;28;96654;-28
2023/10/28 10:08:16;;;;;;;8.07;0.90;;;;;;;12.14;100.00;99600.16;4996740;28;98127;-28
2023/10/28 10:10:47;;;;;;;3.67;0.75;;;;;;;12.14;100.00;99603.72;4995739;28;101273;-27
2023/10/28 10:13:15;;;;;;;0.68;0.55;;;;;;;12.16;100.00;99596.31;4995956;28;96624;-27
2023/10/28 10:15:48;;;;;;;1.10;0.68;;;;;;;12.17;100.00;99606.16;4996842;28;97864;-28
2023/10/28 10:18:21;;;;;;;1.75;0.60;;;;;;;12.27;100.00;99598.06;4993518;28;101172;-30
2023/10/28 10:20:47;;;;;;;1.70;0.80;;;;;;;12.32;100.00;99612.97;4994405;28;100767;-27
2023/10/28 10:23:13;;;;;;;1.23;0.47;;;;;;;12.32;98.62;99620.22;4997530;28;96707;-27
2023/10/28 10:25:43;;;;;;;2.33;0.75;;;;;;;12.33;99.07;99606.50;4996391;28;96789;-27
2023/10/28 10:28:15;;;;;;;0.43;0.43;;;;;;;12.34;98.91;99610.09;4995065;28;101522;-27
2023/10/28 10:30:42;;;;;;;1.30;0.55;;;;;;;12.40;97.90;99605.97;4996556;28;99565;-27
2023/10/28 10:33:07;;;;;;;4.93;0.73;;;;;;;12.42;97.94;99604.84;4995777;28;96464;-27
2023/10/28 10:35:34;;;;;;;2.10;0.77;;;;;;;12.45;98.53;99614.56;4996947;28;96877;-27
2023/10/28 10:38:04;;;;;;;2.72;0.73;;;;;;;12.46;97.89;99608.13;4995261;28;101309;-29
2023/10/28 10:40:47;;;;;;;2.88;0.50;;;;;;;12.54;98.08;99611.88;4995120;28;100919;-27
2023/10/28 10:43:18;;;;;;;2.42;0.47;;;;;;;12.58;97.09;99600.75;4995433;28;96591;-27
2023/10/28 10:45:43;;;;;;;1.73;0.63;;;;;;;12.63;95.81;99606.63;4995910;28;96565;-27
2023/10/28 10:48:08;;;;;;;1.83;0.70;;;;;;;12.61;95.99;99595.91;4996121;28;97300;-27
2023/10/28 10:50:35;;;;;;;1.70;0.45;;;;;;;12.56;95.87;99592.75;4996908;28;97848;-28
2023/10/28 10:53:03;;;;;;;1.75;0.80;;;;;;;12.68;96.25;99605.22;4995140;28;96729;-27
2023/10/28 10:55:29;;;;;;;0.40;0.40;;;;;;;12.70;95.96;99599.63;4995283;28;96856;-27
2023/10/28 10:57:54;;;;;;;0.20;0.20;;;;;;;12.69;95.98;99601.50;4995763;28;97492;-27
2023/10/28 11:00:20;;;;;;;1.83;0.52;;;;;;;12.67;96.03;99598.06;4996298;28;99233;-27
2023/10/28 11:02:48;;;;;;;1.00;0.30;;;;;;;12.65;94.94;99605.47;4995184;28;96523;-27
2023/10/28 11:05:13;;;;;;;1.48;0.82;;;;;;;12.65;95.54;99593.75;4995001;28;96814;-28
2023/10/28 11:07:41;;;;;;;1.52;0.50;;;;;;;12.62;96.35;99594.03;4995877;28;99397;-27
2023/10/28 11:10:09;;;;;;;2.13;0.40;;;;;;;12.63;94.64;99593.03;4994630;28;100729;-27
2023/10/28 11:12:36;;;;;;;2.92;0.28;;;;;;;12.56;94.13;99587.31;4994970;28;96708;-27
2023/10/28 11:15:03;;;;;;;1.52;0.68;;;;;;;12.57;94.53;99588.16;4995307;28;96800;-27
2023/10/28 11:17:29;;;;;;;2.13;0.60;;;;;;;12.56;93.76;99587.31;4994627;28;100823;-28
2023/10/28 11:19:56;;;;;;;0.32;0.28;;;;;;;12.61;94.08;99587.75;4994480;28;101481;-28
2023/10/28 11:22:22;;;;;;;0.90;0.38;;;;;;;12.70;94.09;99592.34;4994240;28;96705;-27